Eurocargo Venezia — IBKS — position and weather

sailwx.info

Track history (hours):
 
Tides and Currents Weather Stations Pressure Air Temp Water Temp Dewpoint Dewpoint Depression Visibility Wind Speed Wind Dir Waves Ship Positions

Eurocargo Venezia

Last reported at 2018-Feb-24 04:13 UTC. Time now 2018-Feb-24 04:34 UTC.
Position N 35°54' E 014°31'.

Length 200 m; draft 6.9 m.

Type: Ship (hazmat cat A). MMSI: 247297200.

Date/timePositionNaut miles runAvg speedWind from/ knotsBaromVisibWave heightAir tempDewpointWater temp
2018-Feb-24 04:13N 35°54' E 014°31'2 8.1
2018-Feb-24 04:00N 35°55' E 014°33'917.9
2018-Feb-24 03:30N 36°03' E 014°39'918.4
2018-Feb-24 03:00N 36°10' E 014°45'117 7.5
2018-Feb-23 11:23N 38°01' E 015°31'717.7
2018-Feb-23 11:00N 38°08' E 015°34'612.8
2018-Feb-23 10:30N 38°14' E 015°36'510.3
2018-Feb-23 10:00N 38°19' E 015°37'1018.2
2018-Feb-23 09:26N 38°29' E 015°33'819.4
2018-Feb-23 09:00N 38°36' E 015°28'1018.7
2018-Feb-23 08:29N 38°45' E 015°22'3919.3
2018-Feb-23 06:26N 39°18' E 014°55'5619.3
2018-Feb-23 03:33N 40°04' E 014°14'219.7
2018-Feb-23 03:26N 40°06' E 014°13'919.7
2018-Feb-23 03:00N 40°13' E 014°07'1019.7
2018-Feb-23 02:30N 40°21' E 013°59'1019.5
2018-Feb-23 02:00N 40°29' E 013°52'1019.7
2018-Feb-23 01:31N 40°37' E 013°45'1019.7
2018-Feb-23 01:00N 40°46' E 013°37'19819.2
2018-Feb-22 14:41N 43°02' E 010°24'419.3
2018-Feb-22 14:30N 43°05' E 010°23'1019.4
2018-Feb-22 14:00N 43°14' E 010°18'1019.3
2018-Feb-22 13:30N 43°24' E 010°15'816.7
2018-Feb-22 13:00N 43°32' E 010°16'3 6.6
2018-Feb-22 12:30N 43°34' E 010°19'1 1.1
2018-Feb-22 12:00N 43°35' E 010°19'0 0.0
2018-Feb-22 11:30N 43°35' E 010°19'0 0.0
2018-Feb-22 11:00N 43°35' E 010°19'0 0.0
2018-Feb-22 10:30N 43°35' E 010°19'0 0.0
2018-Feb-22 10:00N 43°35' E 010°19'0 0.0
2018-Feb-22 09:30N 43°35' E 010°19'0 0.0
2018-Feb-22 09:00N 43°35' E 010°19'0 0.0
2018-Feb-22 08:30N 43°35' E 010°19'0 0.0
2018-Feb-22 08:00N 43°35' E 010°19'0 0.0
2018-Feb-22 07:30N 43°35' E 010°19'0 0.0
2018-Feb-22 07:00N 43°35' E 010°19'0 0.0
2018-Feb-22 06:30N 43°35' E 010°19'0 0.0
2018-Feb-22 06:00N 43°35' E 010°19'0 0.0
2018-Feb-22 05:30N 43°35' E 010°19'0 0.0
2018-Feb-22 05:00N 43°35' E 010°19'2 3.4
2018-Feb-22 04:30N 43°33' E 010°18'3 5.8
2018-Feb-22 04:00N 43°31' E 010°15'5 9.4
2018-Feb-22 03:30N 43°29' E 010°09'612.9
2018-Feb-22 03:01N 43°31' E 010°01'815.2
2018-Feb-22 02:30N 43°34' E 009°51'816.6
2018-Feb-22 02:00N 43°40' E 009°44'816.9
2018-Feb-22 01:31N 43°47' E 009°36'917.2
2018-Feb-22 01:00N 43°54' E 009°29'816.7
2018-Feb-22 00:30N 43°60' E 009°21'816.5
2018-Feb-22 00:00N 44°06' E 009°13'816.4
2018-Feb-21 23:30N 44°12' E 009°06'715.1
2018-Feb-21 23:01N 44°18' E 008°60'612.4
2018-Feb-21 22:30N 44°24' E 008°55'2 3.3
2018-Feb-21 22:01N 44°24' E 008°53'0 0.0
2018-Feb-21 21:30N 44°24' E 008°53'0 0.0
2018-Feb-21 21:01N 44°24' E 008°53'0 0.0
2018-Feb-21 20:30N 44°24' E 008°53'0 0.0
2018-Feb-21 20:00N 44°24' E 008°53'0 0.0
2018-Feb-21 19:30N 44°24' E 008°53'0 0.0
2018-Feb-21 19:01N 44°24' E 008°53'0 0.0
2018-Feb-21 18:30N 44°24' E 008°53'0 0.0
2018-Feb-21 18:00N 44°24' E 008°53'0 0.0
2018-Feb-21 17:30N 44°24' E 008°53'0 0.0
2018-Feb-21 17:00N 44°24' E 008°53'0 0.0
2018-Feb-21 16:30N 44°24' E 008°53'0 0.0
2018-Feb-21 16:00N 44°24' E 008°53'0 0.0
2018-Feb-21 15:30N 44°24' E 008°53'0 0.0
2018-Feb-21 15:00N 44°24' E 008°53'0 0.0
2018-Feb-21 14:30N 44°24' E 008°53'0 0.0
2018-Feb-21 14:00N 44°24' E 008°53'0 0.0
2018-Feb-21 13:31N 44°24' E 008°53'0 0.0
2018-Feb-21 13:01N 44°24' E 008°53'0 0.0
2018-Feb-21 12:30N 44°24' E 008°53'1 1.5
2018-Feb-21 12:00N 44°24' E 008°54'3 6.6
2018-Feb-21 11:31N 44°22' E 008°58'0 0.2
2018-Feb-21 11:00N 44°22' E 008°58'510.3
2018-Feb-21 10:30N 44°18' E 009°01'918.2
2018-Feb-21 10:00N 44°10' E 009°09'918.7
2018-Feb-21 09:30N 44°03' E 009°18'918.9
2018-Feb-21 09:01N 43°56' E 009°26'918.5
2018-Feb-21 08:30N 43°49' E 009°35'918.3
2018-Feb-21 08:01N 43°42' E 009°43'918.6
2018-Feb-21 07:30N 43°35' E 009°51'918.5
2018-Feb-21 07:00N 43°29' E 010°01'918.9
2018-Feb-21 06:31N 43°21' E 010°08'918.4
2018-Feb-21 06:00N 43°13' E 010°14'918.6
2018-Feb-21 05:30N 43°05' E 010°20'33818.8
2018-Feb-20 11:33N 38°52' E 015°17'219.6
2018-Feb-20 11:26N 38°50' E 015°19'919.7
2018-Feb-20 11:00N 38°43' E 015°25'1019.4
2018-Feb-20 10:30N 38°35' E 015°31'1019.3
2018-Feb-20 10:00N 38°26' E 015°38'918.9
2018-Feb-20 09:30N 38°18' E 015°43'816.7
2018-Feb-20 09:00N 38°11' E 015°37'917.6
2018-Feb-20 08:30N 38°03' E 015°33'1019.2
2018-Feb-20 07:59N 37°54' E 015°27'105 7.5
2018-Feb-19 17:53N 36°13' E 014°50'820.2
2018-Feb-19 17:30N 36°07' E 014°44'1120.1
2018-Feb-19 16:58N 35°58' E 014°36'713.3
2018-Feb-19 16:28N 35°53' E 014°31'0 0.0
2018-Feb-19 15:57N 35°53' E 014°31'0 0.0
2018-Feb-19 15:29N 35°53' E 014°31'0 0.0
2018-Feb-19 14:52N 35°53' E 014°31'0 0.0
2018-Feb-19 14:13N 35°53' E 014°31'0 0.0
2018-Feb-19 13:58N 35°53' E 014°31'0 0.0
2018-Feb-19 13:30N 35°53' E 014°31'0 0.0
2018-Feb-19 13:00N 35°53' E 014°31'0 0.0
2018-Feb-19 12:30N 35°53' E 014°31'0 0.0
2018-Feb-19 12:00N 35°53' E 014°31'0 0.0
2018-Feb-19 11:26N 35°53' E 014°31'0 0.0
2018-Feb-19 10:57N 35°53' E 014°31'0 0.0
2018-Feb-19 10:28N 35°53' E 014°31'0 0.0
2018-Feb-19 10:00N 35°53' E 014°31'0 0.0
2018-Feb-19 09:30N 35°53' E 014°31'0 0.0
2018-Feb-19 08:54N 35°53' E 014°31'0 0.0
2018-Feb-19 08:24N 35°53' E 014°31'1 1.3
2018-Feb-19 07:36N 35°54' E 014°31'1 8.7
2018-Feb-19 07:30N 35°55' E 014°32'712.7
2018-Feb-19 06:59N 35°60' E 014°37'1120.4
2018-Feb-19 06:26N 36°09' E 014°44'11011.2
2018-Feb-18 20:41N 37°54' E 015°26'1120.1
2018-Feb-18 20:08N 38°04' E 015°32'520.3
2018-Feb-18 19:53N 38°08' E 015°35'816.8
2018-Feb-18 19:26N 38°15' E 015°39'716.0
2018-Feb-18 19:00N 38°22' E 015°38'1220.3
2018-Feb-18 18:25N 38°32' E 015°31'1021.3
2018-Feb-18 17:58N 38°41' E 015°25'4421.3
2018-Feb-18 15:54N 39°18' E 014°54'27720.3
2018-Feb-18 02:14N 42°39' E 010°42'2519.4
2018-Feb-18 00:57N 43°00' E 010°24'919.8
2018-Feb-18 00:30N 43°08' E 010°18'1020.0
2018-Feb-18 00:01N 43°17' E 010°11'1020.1
2018-Feb-17 23:30N 43°25' E 010°04'1019.4
2018-Feb-17 23:01N 43°32' E 009°55'1020.1
2018-Feb-17 22:31N 43°39' E 009°45'1020.2
2018-Feb-17 22:00N 43°47' E 009°36'1020.2
2018-Feb-17 21:30N 43°55' E 009°27'1020.2
2018-Feb-17 21:01N 44°02' E 009°18'1020.1
2018-Feb-17 20:31N 44°10' E 009°09'1020.0
2018-Feb-17 20:00N 44°18' E 009°00'714.5
2018-Feb-17 19:31N 44°24' E 008°55'1 2.0
2018-Feb-17 19:00N 44°24' E 008°53'0 0.0
2018-Feb-17 18:31N 44°24' E 008°53'0 0.0
2018-Feb-17 18:00N 44°24' E 008°53'0 0.0
2018-Feb-17 17:30N 44°24' E 008°53'0 0.0
2018-Feb-17 17:00N 44°24' E 008°53'0 0.0
2018-Feb-17 16:31N 44°24' E 008°53'0 0.0
2018-Feb-17 16:00N 44°24' E 008°53'0 0.0
2018-Feb-17 15:30N 44°24' E 008°53'0 0.0
2018-Feb-17 15:00N 44°24' E 008°53'0 0.0
2018-Feb-17 14:30N 44°24' E 008°53'0 0.0
2018-Feb-17 14:00N 44°24' E 008°53'0 0.0
2018-Feb-17 13:30N 44°24' E 008°53'0 0.0
2018-Feb-17 13:00N 44°24' E 008°53'0 0.0
2018-Feb-17 12:31N 44°24' E 008°53'0 0.0
2018-Feb-17 12:00N 44°24' E 008°53'0 0.0
2018-Feb-17 11:31N 44°24' E 008°53'0 0.0
2018-Feb-17 11:00N 44°24' E 008°53'0 0.0
2018-Feb-17 10:31N 44°24' E 008°53'0 0.0
2018-Feb-17 10:01N 44°24' E 008°53'0 0.0
2018-Feb-17 09:30N 44°24' E 008°53'0 0.0
2018-Feb-17 09:00N 44°24' E 008°53'0 0.0
2018-Feb-17 08:30N 44°24' E 008°53'0 0.0
2018-Feb-17 08:00N 44°24' E 008°53'0 0.0
2018-Feb-17 07:31N 44°24' E 008°53'0 0.0
2018-Feb-17 07:00N 44°24' E 008°53'0 0.0
2018-Feb-17 06:31N 44°24' E 008°53'0 0.0
2018-Feb-17 06:00N 44°24' E 008°53'1 1.6
2018-Feb-17 05:31N 44°24' E 008°54'3 6.4
2018-Feb-17 05:00N 44°22' E 008°58'816.6
2018-Feb-17 04:30N 44°15' E 009°04'1019.1
2018-Feb-17 04:00N 44°08' E 009°13'1019.2
2018-Feb-17 03:30N 44°01' E 009°22'918.9
2018-Feb-17 03:00N 43°54' E 009°31'918.9
2018-Feb-17 02:31N 43°47' E 009°39'1019.7
2018-Feb-17 02:00N 43°39' E 009°47'1019.7
2018-Feb-17 01:30N 43°32' E 009°57'1019.4
2018-Feb-17 01:01N 43°24' E 010°06'1019.9
2018-Feb-17 00:30N 43°16' E 010°12'35219.5
2018-Feb-16 06:28N 38°50' E 015°19'1120.2
2018-Feb-16 05:55N 38°41' E 015°26'920.0
2018-Feb-16 05:29N 38°33' E 015°32'1019.9
2018-Feb-16 05:00N 38°25' E 015°38'1017.0
2018-Feb-16 04:25N 38°15' E 015°39'716.7
2018-Feb-16 04:00N 38°09' E 015°36'918.2
2018-Feb-16 03:29N 38°00' E 015°31'1819.2
2018-Feb-16 02:35N 37°44' E 015°21'86 6.9
2018-Feb-15 14:10N 36°22' E 014°52'317.1
2018-Feb-15 13:58N 36°19' E 014°50'816.8
2018-Feb-15 13:29N 36°12' E 014°46'816.7
2018-Feb-15 13:01N 36°05' E 014°41'917.1
2018-Feb-15 12:28N 35°57' E 014°34'5 9.3
2018-Feb-15 11:56N 35°53' E 014°31'0 0.0
2018-Feb-15 11:27N 35°53' E 014°31'0 0.0
2018-Feb-15 10:39N 35°53' E 014°31'0 0.0
2018-Feb-15 10:11N 35°53' E 014°31'0 0.0
2018-Feb-15 09:50N 35°53' E 014°31'0 0.0
2018-Feb-15 09:21N 35°53' E 014°31'0 0.0
2018-Feb-15 08:59N 35°53' E 014°31'0 0.0
2018-Feb-15 08:29N 35°53' E 014°31'0 0.0
2018-Feb-15 07:53N 35°53' E 014°31'0 0.0
2018-Feb-15 07:29N 35°53' E 014°31'0 0.0
2018-Feb-15 06:57N 35°53' E 014°31'0 0.0
2018-Feb-15 06:30N 35°53' E 014°31'0 0.0
2018-Feb-15 06:00N 35°53' E 014°31'0 0.0
2018-Feb-15 05:28N 35°53' E 014°31'0 0.0
2018-Feb-15 04:53N 35°53' E 014°31'1 3.4
2018-Feb-15 04:30N 35°54' E 014°32'612.3
2018-Feb-15 04:00N 35°59' E 014°36'917.8
2018-Feb-15 03:30N 36°06' E 014°42'123 7.9
2018-Feb-14 11:52N 38°03' E 015°32'617.2
2018-Feb-14 11:30N 38°09' E 015°35'1117.4
2018-Feb-14 10:54N 38°19' E 015°40'917.6
2018-Feb-14 10:25N 38°27' E 015°37'717.8
2018-Feb-14 09:59N 38°34' E 015°34'1117.9
2018-Feb-14 09:23N 38°44' E 015°28'4317.9
2018-Feb-14 06:58N 39°24' E 015°09'2418.0
2018-Feb-14 05:38N 39°47' E 014°58'217.8
2018-Feb-14 05:30N 39°49' E 014°57'  
Track history (hours):
 
Tides and Currents Weather Stations Pressure Air Temp Water Temp Dewpoint Dewpoint Depression Visibility Wind Speed Wind Dir Waves Ship Positions

Eurocargo Venezia

Last reported at 2018-Feb-24 04:13 UTC. Time now 2018-Feb-24 04:34 UTC.
Position N 35°54' E 014°31'.

Length 200 m; draft 6.9 m.

Type: Ship (hazmat cat A). MMSI: 247297200.

Date/timePositionNaut miles runAvg speedWind from/ knotsBaromVisibWave heightAir tempDewpointWater temp
2018-Feb-24 04:13N 35°54' E 014°31'2 8.1
2018-Feb-24 04:00N 35°55' E 014°33'917.9
2018-Feb-24 03:30N 36°03' E 014°39'918.4
2018-Feb-24 03:00N 36°10' E 014°45'117 7.5
2018-Feb-23 11:23N 38°01' E 015°31'717.7
2018-Feb-23 11:00N 38°08' E 015°34'612.8
2018-Feb-23 10:30N 38°14' E 015°36'510.3
2018-Feb-23 10:00N 38°19' E 015°37'1018.2
2018-Feb-23 09:26N 38°29' E 015°33'819.4
2018-Feb-23 09:00N 38°36' E 015°28'1018.7
2018-Feb-23 08:29N 38°45' E 015°22'3919.3
2018-Feb-23 06:26N 39°18' E 014°55'5619.3
2018-Feb-23 03:33N 40°04' E 014°14'219.7
2018-Feb-23 03:26N 40°06' E 014°13'919.7
2018-Feb-23 03:00N 40°13' E 014°07'1019.7
2018-Feb-23 02:30N 40°21' E 013°59'1019.5
2018-Feb-23 02:00N 40°29' E 013°52'1019.7
2018-Feb-23 01:31N 40°37' E 013°45'1019.7
2018-Feb-23 01:00N 40°46' E 013°37'19819.2
2018-Feb-22 14:41N 43°02' E 010°24'419.3
2018-Feb-22 14:30N 43°05' E 010°23'1019.4
2018-Feb-22 14:00N 43°14' E 010°18'1019.3
2018-Feb-22 13:30N 43°24' E 010°15'816.7
2018-Feb-22 13:00N 43°32' E 010°16'3 6.6
2018-Feb-22 12:30N 43°34' E 010°19'1 1.1
2018-Feb-22 12:00N 43°35' E 010°19'0 0.0
2018-Feb-22 11:30N 43°35' E 010°19'0 0.0
2018-Feb-22 11:00N 43°35' E 010°19'0 0.0
2018-Feb-22 10:30N 43°35' E 010°19'0 0.0
2018-Feb-22 10:00N 43°35' E 010°19'0 0.0
2018-Feb-22 09:30N 43°35' E 010°19'0 0.0
2018-Feb-22 09:00N 43°35' E 010°19'0 0.0
2018-Feb-22 08:30N 43°35' E 010°19'0 0.0
2018-Feb-22 08:00N 43°35' E 010°19'0 0.0
2018-Feb-22 07:30N 43°35' E 010°19'0 0.0
2018-Feb-22 07:00N 43°35' E 010°19'0 0.0
2018-Feb-22 06:30N 43°35' E 010°19'0 0.0
2018-Feb-22 06:00N 43°35' E 010°19'0 0.0
2018-Feb-22 05:30N 43°35' E 010°19'0 0.0
2018-Feb-22 05:00N 43°35' E 010°19'2 3.4
2018-Feb-22 04:30N 43°33' E 010°18'3 5.8
2018-Feb-22 04:00N 43°31' E 010°15'5 9.4
2018-Feb-22 03:30N 43°29' E 010°09'612.9
2018-Feb-22 03:01N 43°31' E 010°01'815.2
2018-Feb-22 02:30N 43°34' E 009°51'816.6
2018-Feb-22 02:00N 43°40' E 009°44'816.9
2018-Feb-22 01:31N 43°47' E 009°36'917.2
2018-Feb-22 01:00N 43°54' E 009°29'816.7
2018-Feb-22 00:30N 43°60' E 009°21'816.5
2018-Feb-22 00:00N 44°06' E 009°13'816.4
2018-Feb-21 23:30N 44°12' E 009°06'715.1
2018-Feb-21 23:01N 44°18' E 008°60'612.4
2018-Feb-21 22:30N 44°24' E 008°55'2 3.3
2018-Feb-21 22:01N 44°24' E 008°53'0 0.0
2018-Feb-21 21:30N 44°24' E 008°53'0 0.0
2018-Feb-21 21:01N 44°24' E 008°53'0 0.0
2018-Feb-21 20:30N 44°24' E 008°53'0 0.0
2018-Feb-21 20:00N 44°24' E 008°53'0 0.0
2018-Feb-21 19:30N 44°24' E 008°53'0 0.0
2018-Feb-21 19:01N 44°24' E 008°53'0 0.0
2018-Feb-21 18:30N 44°24' E 008°53'0 0.0
2018-Feb-21 18:00N 44°24' E 008°53'0 0.0
2018-Feb-21 17:30N 44°24' E 008°53'0 0.0
2018-Feb-21 17:00N 44°24' E 008°53'0 0.0
2018-Feb-21 16:30N 44°24' E 008°53'0 0.0
2018-Feb-21 16:00N 44°24' E 008°53'0 0.0
2018-Feb-21 15:30N 44°24' E 008°53'0 0.0
2018-Feb-21 15:00N 44°24' E 008°53'0 0.0
2018-Feb-21 14:30N 44°24' E 008°53'0 0.0
2018-Feb-21 14:00N 44°24' E 008°53'0 0.0
2018-Feb-21 13:31N 44°24' E 008°53'0 0.0
2018-Feb-21 13:01N 44°24' E 008°53'0 0.0
2018-Feb-21 12:30N 44°24' E 008°53'1 1.5
2018-Feb-21 12:00N 44°24' E 008°54'3 6.6
2018-Feb-21 11:31N 44°22' E 008°58'0 0.2
2018-Feb-21 11:00N 44°22' E 008°58'510.3
2018-Feb-21 10:30N 44°18' E 009°01'918.2
2018-Feb-21 10:00N 44°10' E 009°09'918.7
2018-Feb-21 09:30N 44°03' E 009°18'918.9
2018-Feb-21 09:01N 43°56' E 009°26'918.5
2018-Feb-21 08:30N 43°49' E 009°35'918.3
2018-Feb-21 08:01N 43°42' E 009°43'918.6
2018-Feb-21 07:30N 43°35' E 009°51'918.5
2018-Feb-21 07:00N 43°29' E 010°01'918.9
2018-Feb-21 06:31N 43°21' E 010°08'918.4
2018-Feb-21 06:00N 43°13' E 010°14'918.6
2018-Feb-21 05:30N 43°05' E 010°20'33818.8
2018-Feb-20 11:33N 38°52' E 015°17'219.6
2018-Feb-20 11:26N 38°50' E 015°19'919.7
2018-Feb-20 11:00N 38°43' E 015°25'1019.4
2018-Feb-20 10:30N 38°35' E 015°31'1019.3
2018-Feb-20 10:00N 38°26' E 015°38'918.9
2018-Feb-20 09:30N 38°18' E 015°43'816.7
2018-Feb-20 09:00N 38°11' E 015°37'917.6
2018-Feb-20 08:30N 38°03' E 015°33'1019.2
2018-Feb-20 07:59N 37°54' E 015°27'105 7.5
2018-Feb-19 17:53N 36°13' E 014°50'820.2
2018-Feb-19 17:30N 36°07' E 014°44'1120.1
2018-Feb-19 16:58N 35°58' E 014°36'713.3
2018-Feb-19 16:28N 35°53' E 014°31'0 0.0
2018-Feb-19 15:57N 35°53' E 014°31'0 0.0
2018-Feb-19 15:29N 35°53' E 014°31'0 0.0
2018-Feb-19 14:52N 35°53' E 014°31'0 0.0
2018-Feb-19 14:13N 35°53' E 014°31'0 0.0
2018-Feb-19 13:58N 35°53' E 014°31'0 0.0
2018-Feb-19 13:30N 35°53' E 014°31'0 0.0
2018-Feb-19 13:00N 35°53' E 014°31'0 0.0
2018-Feb-19 12:30N 35°53' E 014°31'0 0.0
2018-Feb-19 12:00N 35°53' E 014°31'0 0.0
2018-Feb-19 11:26N 35°53' E 014°31'0 0.0
2018-Feb-19 10:57N 35°53' E 014°31'0 0.0
2018-Feb-19 10:28N 35°53' E 014°31'0 0.0
2018-Feb-19 10:00N 35°53' E 014°31'0 0.0
2018-Feb-19 09:30N 35°53' E 014°31'0 0.0
2018-Feb-19 08:54N 35°53' E 014°31'0 0.0
2018-Feb-19 08:24N 35°53' E 014°31'1 1.3
2018-Feb-19 07:36N 35°54' E 014°31'1 8.7
2018-Feb-19 07:30N 35°55' E 014°32'712.7
2018-Feb-19 06:59N 35°60' E 014°37'1120.4
2018-Feb-19 06:26N 36°09' E 014°44'11011.2
2018-Feb-18 20:41N 37°54' E 015°26'1120.1
2018-Feb-18 20:08N 38°04' E 015°32'520.3
2018-Feb-18 19:53N 38°08' E 015°35'816.8
2018-Feb-18 19:26N 38°15' E 015°39'716.0
2018-Feb-18 19:00N 38°22' E 015°38'1220.3
2018-Feb-18 18:25N 38°32' E 015°31'1021.3
2018-Feb-18 17:58N 38°41' E 015°25'4421.3
2018-Feb-18 15:54N 39°18' E 014°54'27720.3
2018-Feb-18 02:14N 42°39' E 010°42'2519.4
2018-Feb-18 00:57N 43°00' E 010°24'919.8
2018-Feb-18 00:30N 43°08' E 010°18'1020.0
2018-Feb-18 00:01N 43°17' E 010°11'1020.1
2018-Feb-17 23:30N 43°25' E 010°04'1019.4
2018-Feb-17 23:01N 43°32' E 009°55'1020.1
2018-Feb-17 22:31N 43°39' E 009°45'1020.2
2018-Feb-17 22:00N 43°47' E 009°36'1020.2
2018-Feb-17 21:30N 43°55' E 009°27'1020.2
2018-Feb-17 21:01N 44°02' E 009°18'1020.1
2018-Feb-17 20:31N 44°10' E 009°09'1020.0
2018-Feb-17 20:00N 44°18' E 009°00'714.5
2018-Feb-17 19:31N 44°24' E 008°55'1 2.0
2018-Feb-17 19:00N 44°24' E 008°53'0 0.0
2018-Feb-17 18:31N 44°24' E 008°53'0 0.0
2018-Feb-17 18:00N 44°24' E 008°53'0 0.0
2018-Feb-17 17:30N 44°24' E 008°53'0 0.0
2018-Feb-17 17:00N 44°24' E 008°53'0 0.0
2018-Feb-17 16:31N 44°24' E 008°53'0 0.0
2018-Feb-17 16:00N 44°24' E 008°53'0 0.0
2018-Feb-17 15:30N 44°24' E 008°53'0 0.0
2018-Feb-17 15:00N 44°24' E 008°53'0 0.0
2018-Feb-17 14:30N 44°24' E 008°53'0 0.0
2018-Feb-17 14:00N 44°24' E 008°53'0 0.0
2018-Feb-17 13:30N 44°24' E 008°53'0 0.0
2018-Feb-17 13:00N 44°24' E 008°53'0 0.0
2018-Feb-17 12:31N 44°24' E 008°53'0 0.0
2018-Feb-17 12:00N 44°24' E 008°53'0 0.0
2018-Feb-17 11:31N 44°24' E 008°53'0 0.0
2018-Feb-17 11:00N 44°24' E 008°53'0 0.0
2018-Feb-17 10:31N 44°24' E 008°53'0 0.0
2018-Feb-17 10:01N 44°24' E 008°53'0 0.0
2018-Feb-17 09:30N 44°24' E 008°53'0 0.0
2018-Feb-17 09:00N 44°24' E 008°53'0 0.0
2018-Feb-17 08:30N 44°24' E 008°53'0 0.0
2018-Feb-17 08:00N 44°24' E 008°53'0 0.0
2018-Feb-17 07:31N 44°24' E 008°53'0 0.0
2018-Feb-17 07:00N 44°24' E 008°53'0 0.0
2018-Feb-17 06:31N 44°24' E 008°53'0 0.0
2018-Feb-17 06:00N 44°24' E 008°53'1 1.6
2018-Feb-17 05:31N 44°24' E 008°54'3 6.4
2018-Feb-17 05:00N 44°22' E 008°58'816.6
2018-Feb-17 04:30N 44°15' E 009°04'1019.1
2018-Feb-17 04:00N 44°08' E 009°13'1019.2
2018-Feb-17 03:30N 44°01' E 009°22'918.9
2018-Feb-17 03:00N 43°54' E 009°31'918.9
2018-Feb-17 02:31N 43°47' E 009°39'1019.7
2018-Feb-17 02:00N 43°39' E 009°47'1019.7
2018-Feb-17 01:30N 43°32' E 009°57'1019.4
2018-Feb-17 01:01N 43°24' E 010°06'1019.9
2018-Feb-17 00:30N 43°16' E 010°12'35219.5
2018-Feb-16 06:28N 38°50' E 015°19'1120.2
2018-Feb-16 05:55N 38°41' E 015°26'920.0
2018-Feb-16 05:29N 38°33' E 015°32'1019.9
2018-Feb-16 05:00N 38°25' E 015°38'1017.0
2018-Feb-16 04:25N 38°15' E 015°39'716.7
2018-Feb-16 04:00N 38°09' E 015°36'918.2
2018-Feb-16 03:29N 38°00' E 015°31'1819.2
2018-Feb-16 02:35N 37°44' E 015°21'86 6.9
2018-Feb-15 14:10N 36°22' E 014°52'317.1
2018-Feb-15 13:58N 36°19' E 014°50'816.8
2018-Feb-15 13:29N 36°12' E 014°46'816.7
2018-Feb-15 13:01N 36°05' E 014°41'917.1
2018-Feb-15 12:28N 35°57' E 014°34'5 9.3
2018-Feb-15 11:56N 35°53' E 014°31'0 0.0
2018-Feb-15 11:27N 35°53' E 014°31'0 0.0
2018-Feb-15 10:39N 35°53' E 014°31'0 0.0
2018-Feb-15 10:11N 35°53' E 014°31'0 0.0
2018-Feb-15 09:50N 35°53' E 014°31'0 0.0
2018-Feb-15 09:21N 35°53' E 014°31'0 0.0
2018-Feb-15 08:59N 35°53' E 014°31'0 0.0
2018-Feb-15 08:29N 35°53' E 014°31'0 0.0
2018-Feb-15 07:53N 35°53' E 014°31'0 0.0
2018-Feb-15 07:29N 35°53' E 014°31'0 0.0
2018-Feb-15 06:57N 35°53' E 014°31'0 0.0
2018-Feb-15 06:30N 35°53' E 014°31'0 0.0
2018-Feb-15 06:00N 35°53' E 014°31'0 0.0
2018-Feb-15 05:28N 35°53' E 014°31'0 0.0
2018-Feb-15 04:53N 35°53' E 014°31'1 3.4
2018-Feb-15 04:30N 35°54' E 014°32'612.3
2018-Feb-15 04:00N 35°59' E 014°36'917.8
2018-Feb-15 03:30N 36°06' E 014°42'123 7.9
2018-Feb-14 11:52N 38°03' E 015°32'617.2
2018-Feb-14 11:30N 38°09' E 015°35'1117.4
2018-Feb-14 10:54N 38°19' E 015°40'917.6
2018-Feb-14 10:25N 38°27' E 015°37'717.8
2018-Feb-14 09:59N 38°34' E 015°34'1117.9
2018-Feb-14 09:23N 38°44' E 015°28'4317.9
2018-Feb-14 06:58N 39°24' E 015°09'2418.0
2018-Feb-14 05:38N 39°47' E 014°58'217.8
2018-Feb-14 05:30N 39°49' E 014°57'  

Dump ship's entire track history